sensor_id;sensor_type;location;lat;lon;timestamp;P1;durP1;ratioP1;P2;durP2;ratioP2
19810;SDS011;10065;49.632;8.346;2023-11-19T00:31:04;7.07;;;3.60;;
19810;SDS011;10065;49.632;8.346;2023-11-19T00:43:51;4.47;;;2.90;;
19810;SDS011;10065;49.632;8.346;2023-11-19T00:46:41;7.37;;;2.90;;
19810;SDS011;10065;49.632;8.346;2023-11-19T00:53:46;4.63;;;2.77;;
19810;SDS011;10065;49.632;8.346;2023-11-19T01:01:02;4.37;;;2.40;;
19810;SDS011;10065;49.632;8.346;2023-11-19T01:16:21;4.30;;;2.27;;
19810;SDS011;10065;49.632;8.346;2023-11-19T08:02:09;5.00;;;1.43;;
19810;SDS011;10065;49.632;8.346;2023-11-19T08:04:37;6.73;;;1.83;;
19810;SDS011;10065;49.632;8.346;2023-11-19T08:07:11;4.23;;;1.60;;
19810;SDS011;10065;49.632;8.346;2023-11-19T08:09:39;3.93;;;1.50;;
19810;SDS011;10065;49.632;8.346;2023-11-19T08:12:07;3.67;;;1.60;;
19810;SDS011;10065;49.632;8.346;2023-11-19T08:17:20;3.83;;;1.90;;
19810;SDS011;10065;49.632;8.346;2023-11-19T08:19:49;2.77;;;1.20;;
19810;SDS011;10065;49.632;8.346;2023-11-19T08:22:18;8.00;;;1.43;;
19810;SDS011;10065;49.632;8.346;2023-11-19T08:24:48;4.00;;;1.40;;
19810;SDS011;10065;49.632;8.346;2023-11-19T08:27:16;5.17;;;1.27;;
19810;SDS011;10065;49.632;8.346;2023-11-19T08:29:45;6.77;;;1.53;;
19810;SDS011;10065;49.632;8.346;2023-11-19T08:32:13;3.00;;;1.20;;
19810;SDS011;10065;49.632;8.346;2023-11-19T08:34:43;2.70;;;1.30;;
19810;SDS011;10065;49.632;8.346;2023-11-19T08:37:11;3.27;;;0.90;;
19810;SDS011;10065;49.632;8.346;2023-11-19T08:39:39;2.57;;;1.27;;
19810;SDS011;10065;49.632;8.346;2023-11-19T08:42:08;3.87;;;1.37;;
19810;SDS011;10065;49.632;8.346;2023-11-19T08:44:37;4.20;;;1.60;;
19810;SDS011;10065;49.632;8.346;2023-11-19T08:47:05;5.43;;;1.23;;
19810;SDS011;10065;49.632;8.346;2023-11-19T08:49:33;6.10;;;2.20;;
19810;SDS011;10065;49.632;8.346;2023-11-19T08:52:03;4.07;;;1.60;;
19810;SDS011;10065;49.632;8.346;2023-11-19T08:54:36;2.17;;;1.30;;
19810;SDS011;10065;49.632;8.346;2023-11-19T08:57:12;2.87;;;1.30;;
19810;SDS011;10065;49.632;8.346;2023-11-19T08:59:40;3.20;;;1.27;;
19810;SDS011;10065;49.632;8.346;2023-11-19T09:02:12;3.63;;;1.40;;
19810;SDS011;10065;49.632;8.346;2023-11-19T09:08:15;5.87;;;2.53;;
19810;SDS011;10065;49.632;8.346;2023-11-19T09:10:51;2.87;;;1.60;;
19810;SDS011;10065;49.632;8.346;2023-11-19T09:13:47;3.60;;;1.30;;
19810;SDS011;10065;49.632;8.346;2023-11-19T09:16:20;4.10;;;1.30;;
19810;SDS011;10065;49.632;8.346;2023-11-19T09:19:05;7.77;;;2.67;;
19810;SDS011;10065;49.632;8.346;2023-11-19T09:21:41;9.07;;;3.60;;
19810;SDS011;10065;49.632;8.346;2023-11-19T09:24:17;3.60;;;2.00;;
19810;SDS011;10065;49.632;8.346;2023-11-19T09:26:50;4.67;;;1.70;;
19810;SDS011;10065;49.632;8.346;2023-11-19T09:29:21;3.63;;;1.60;;
19810;SDS011;10065;49.632;8.346;2023-11-19T09:31:59;6.93;;;1.97;;
19810;SDS011;10065;49.632;8.346;2023-11-19T09:34:30;6.90;;;2.07;;
19810;SDS011;10065;49.632;8.346;2023-11-19T09:41:01;5.40;;;1.50;;
19810;SDS011;10065;49.632;8.346;2023-11-19T09:43:47;6.80;;;2.30;;
19810;SDS011;10065;49.632;8.346;2023-11-19T09:46:27;6.20;;;2.00;;
19810;SDS011;10065;49.632;8.346;2023-11-19T09:49:05;4.87;;;1.90;;
19810;SDS011;10065;49.632;8.346;2023-11-19T09:51:36;7.37;;;2.20;;
19810;SDS011;10065;49.632;8.346;2023-11-19T09:54:13;7.57;;;2.27;;
19810;SDS011;10065;49.632;8.346;2023-11-19T09:56:44;5.87;;;2.10;;
19810;SDS011;10065;49.632;8.346;2023-11-19T10:02:50;4.20;;;1.70;;
19810;SDS011;10065;49.632;8.346;2023-11-19T10:05:27;5.37;;;1.83;;
19810;SDS011;10065;49.632;8.346;2023-11-19T10:08:01;5.50;;;1.70;;
19810;SDS011;10065;49.632;8.346;2023-11-19T10:10:30;5.10;;;1.90;;
19810;SDS011;10065;49.632;8.346;2023-11-19T10:13:00;6.97;;;2.10;;
19810;SDS011;10065;49.632;8.346;2023-11-19T10:15:38;8.33;;;2.37;;
19810;SDS011;10065;49.632;8.346;2023-11-19T10:18:07;6.97;;;1.60;;
19810;SDS011;10065;49.632;8.346;2023-11-19T10:43:15;4.90;;;1.23;;
19810;SDS011;10065;49.632;8.346;2023-11-19T11:02:32;6.13;;;1.33;;
19810;SDS011;10065;49.632;8.346;2023-11-19T11:05:45;4.83;;;1.47;;
19810;SDS011;10065;49.632;8.346;2023-11-19T12:26:04;9.10;;;1.77;;
19810;SDS011;10065;49.632;8.346;2023-11-19T12:29:41;6.47;;;1.30;;
19810;SDS011;10065;49.632;8.346;2023-11-19T12:32:28;5.80;;;1.20;;
19810;SDS011;10065;49.632;8.346;2023-11-19T12:37:43;7.20;;;1.47;;
19810;SDS011;10065;49.632;8.346;2023-11-19T12:39:49;6.60;;;1.17;;
19810;SDS011;10065;49.632;8.346;2023-11-19T12:42:37;6.20;;;1.13;;
19810;SDS011;10065;49.632;8.346;2023-11-19T12:45:06;4.13;;;1.10;;
19810;SDS011;10065;49.632;8.346;2023-11-19T12:47:43;4.57;;;1.00;;
19810;SDS011;10065;49.632;8.346;2023-11-19T12:50:14;8.33;;;1.60;;
19810;SDS011;10065;49.632;8.346;2023-11-19T12:52:55;8.00;;;1.60;;
19810;SDS011;10065;49.632;8.346;2023-11-19T12:55:24;8.83;;;1.60;;
19810;SDS011;10065;49.632;8.346;2023-11-19T12:58:04;6.00;;;1.30;;
19810;SDS011;10065;49.632;8.346;2023-11-19T13:00:31;6.27;;;1.40;;
19810;SDS011;10065;49.632;8.346;2023-11-19T13:03:03;11.93;;;1.10;;
19810;SDS011;10065;49.632;8.346;2023-11-19T13:05:34;4.00;;;1.00;;
19810;SDS011;10065;49.632;8.346;2023-11-19T13:08:05;5.87;;;1.30;;
19810;SDS011;10065;49.632;8.346;2023-11-19T13:10:49;6.23;;;1.23;;
19810;SDS011;10065;49.632;8.346;2023-11-19T13:13:23;6.83;;;1.30;;
19810;SDS011;10065;49.632;8.346;2023-11-19T13:18:47;7.40;;;1.47;;
19810;SDS011;10065;49.632;8.346;2023-11-19T13:21:21;8.10;;;1.50;;
19810;SDS011;10065;49.632;8.346;2023-11-19T13:23:49;7.47;;;1.20;;
19810;SDS011;10065;49.632;8.346;2023-11-19T13:26:20;4.53;;;1.00;;
19810;SDS011;10065;49.632;8.346;2023-11-19T13:28:50;6.33;;;0.90;;
19810;SDS011;10065;49.632;8.346;2023-11-19T13:31:18;11.63;;;1.40;;
19810;SDS011;10065;49.632;8.346;2023-11-19T13:34:02;6.23;;;1.23;;
19810;SDS011;10065;49.632;8.346;2023-11-19T13:36:30;3.90;;;1.30;;
19810;SDS011;10065;49.632;8.346;2023-11-19T13:39:05;7.93;;;1.70;;
19810;SDS011;10065;49.632;8.346;2023-11-19T13:41:39;4.53;;;1.10;;
19810;SDS011;10065;49.632;8.346;2023-11-19T13:44:14;9.53;;;1.67;;
19810;SDS011;10065;49.632;8.346;2023-11-19T13:46:44;5.43;;;1.30;;
19810;SDS011;10065;49.632;8.346;2023-11-19T13:49:16;4.77;;;1.20;;
19810;SDS011;10065;49.632;8.346;2023-11-19T13:51:53;7.80;;;2.10;;
19810;SDS011;10065;49.632;8.346;2023-11-19T13:54:42;10.40;;;1.90;;
19810;SDS011;10065;49.632;8.346;2023-11-19T13:57:22;5.90;;;1.30;;
19810;SDS011;10065;49.632;8.346;2023-11-19T13:59:52;6.47;;;1.23;;
19810;SDS011;10065;49.632;8.346;2023-11-19T14:02:20;7.03;;;1.60;;
19810;SDS011;10065;49.632;8.346;2023-11-19T14:04:49;6.47;;;1.87;;
19810;SDS011;10065;49.632;8.346;2023-11-19T14:07:19;7.93;;;2.17;;
19810;SDS011;10065;49.632;8.346;2023-11-19T14:09:47;9.50;;;1.90;;
19810;SDS011;10065;49.632;8.346;2023-11-19T14:12:19;6.80;;;1.70;;
19810;SDS011;10065;49.632;8.346;2023-11-19T14:15:03;6.53;;;1.50;;
19810;SDS011;10065;49.632;8.346;2023-11-19T14:17:32;9.60;;;1.60;;
19810;SDS011;10065;49.632;8.346;2023-11-19T14:20:02;8.17;;;1.63;;
19810;SDS011;10065;49.632;8.346;2023-11-19T14:23:00;5.63;;;1.50;;
19810;SDS011;10065;49.632;8.346;2023-11-19T14:26:03;5.40;;;1.10;;
19810;SDS011;10065;49.632;8.346;2023-11-19T14:28:28;5.57;;;1.40;;
19810;SDS011;10065;49.632;8.346;2023-11-19T14:30:59;8.13;;;1.67;;
19810;SDS011;10065;49.632;8.346;2023-11-19T14:33:26;7.07;;;1.67;;
19810;SDS011;10065;49.632;8.346;2023-11-19T14:35:55;8.90;;;1.50;;
19810;SDS011;10065;49.632;8.346;2023-11-19T14:38:23;6.93;;;1.80;;
19810;SDS011;10065;49.632;8.346;2023-11-19T14:40:51;5.17;;;1.60;;
19810;SDS011;10065;49.632;8.346;2023-11-19T14:43:21;4.83;;;1.30;;
19810;SDS011;10065;49.632;8.346;2023-11-19T14:45:50;11.83;;;1.83;;
19810;SDS011;10065;49.632;8.346;2023-11-19T14:48:22;7.67;;;1.27;;
19810;SDS011;10065;49.632;8.346;2023-11-19T14:50:50;7.27;;;1.40;;
19810;SDS011;10065;49.632;8.346;2023-11-19T14:53:19;7.33;;;1.60;;
19810;SDS011;10065;49.632;8.346;2023-11-19T14:55:47;5.87;;;1.50;;
19810;SDS011;10065;49.632;8.346;2023-11-19T14:58:15;10.17;;;1.60;;
19810;SDS011;10065;49.632;8.346;2023-11-19T15:00:43;11.87;;;1.70;;
19810;SDS011;10065;49.632;8.346;2023-11-19T15:03:13;7.67;;;1.13;;
19810;SDS011;10065;49.632;8.346;2023-11-19T15:05:47;6.37;;;0.93;;
19810;SDS011;10065;49.632;8.346;2023-11-19T15:08:21;9.67;;;1.23;;
19810;SDS011;10065;49.632;8.346;2023-11-19T15:10:52;5.53;;;1.53;;
19810;SDS011;10065;49.632;8.346;2023-11-19T15:13:20;11.27;;;1.90;;
19810;SDS011;10065;49.632;8.346;2023-11-19T15:15:49;9.77;;;4.40;;
19810;SDS011;10065;49.632;8.346;2023-11-19T15:18:19;5.97;;;1.70;;
19810;SDS011;10065;49.632;8.346;2023-11-19T15:20:48;6.33;;;1.57;;
19810;SDS011;10065;49.632;8.346;2023-11-19T15:23:16;8.67;;;1.60;;
19810;SDS011;10065;49.632;8.346;2023-11-19T15:25:46;8.40;;;1.20;;
19810;SDS011;10065;49.632;8.346;2023-11-19T15:28:15;7.47;;;1.70;;
19810;SDS011;10065;49.632;8.346;2023-11-19T15:30:43;6.30;;;1.80;;
19810;SDS011;10065;49.632;8.346;2023-11-19T15:33:11;5.50;;;1.80;;
19810;SDS011;10065;49.632;8.346;2023-11-19T15:35:40;5.67;;;1.40;;
19810;SDS011;10065;49.632;8.346;2023-11-19T15:38:10;5.57;;;1.60;;
19810;SDS011;10065;49.632;8.346;2023-11-19T15:40:38;7.80;;;2.90;;
19810;SDS011;10065;49.632;8.346;2023-11-19T15:43:09;8.03;;;2.30;;
19810;SDS011;10065;49.632;8.346;2023-11-19T15:45:37;3.37;;;1.20;;
19810;SDS011;10065;49.632;8.346;2023-11-19T15:48:06;9.87;;;1.93;;
19810;SDS011;10065;49.632;8.346;2023-11-19T15:50:34;7.60;;;1.73;;
19810;SDS011;10065;49.632;8.346;2023-11-19T15:53:02;8.53;;;1.60;;
19810;SDS011;10065;49.632;8.346;2023-11-19T15:55:31;6.47;;;2.00;;
19810;SDS011;10065;49.632;8.346;2023-11-19T15:57:59;6.10;;;1.30;;
19810;SDS011;10065;49.632;8.346;2023-11-19T16:00:29;5.73;;;1.47;;
19810;SDS011;10065;49.632;8.346;2023-11-19T16:02:58;6.33;;;1.50;;
19810;SDS011;10065;49.632;8.346;2023-11-19T16:05:26;6.13;;;1.23;;
19810;SDS011;10065;49.632;8.346;2023-11-19T16:07:54;4.27;;;1.37;;
19810;SDS011;10065;49.632;8.346;2023-11-19T16:10:22;8.50;;;1.80;;
19810;SDS011;10065;49.632;8.346;2023-11-19T16:12:53;4.37;;;1.60;;
19810;SDS011;10065;49.632;8.346;2023-11-19T16:15:21;5.73;;;1.30;;
19810;SDS011;10065;49.632;8.346;2023-11-19T16:17:52;4.73;;;1.27;;
19810;SDS011;10065;49.632;8.346;2023-11-19T16:20:21;9.13;;;1.40;;
19810;SDS011;10065;49.632;8.346;2023-11-19T16:22:50;7.60;;;1.70;;
19810;SDS011;10065;49.632;8.346;2023-11-19T16:25:18;8.80;;;2.17;;
19810;SDS011;10065;49.632;8.346;2023-11-19T16:27:49;5.93;;;1.70;;
19810;SDS011;10065;49.632;8.346;2023-11-19T16:30:19;12.47;;;1.73;;
19810;SDS011;10065;49.632;8.346;2023-11-19T16:32:50;8.90;;;1.80;;
19810;SDS011;10065;49.632;8.346;2023-11-19T16:35:21;8.00;;;2.10;;
19810;SDS011;10065;49.632;8.346;2023-11-19T16:37:49;9.13;;;2.13;;
19810;SDS011;10065;49.632;8.346;2023-11-19T16:40:17;7.00;;;1.87;;
19810;SDS011;10065;49.632;8.346;2023-11-19T16:42:47;8.47;;;1.60;;
19810;SDS011;10065;49.632;8.346;2023-11-19T16:45:17;4.87;;;1.50;;
19810;SDS011;10065;49.632;8.346;2023-11-19T16:47:47;7.67;;;1.50;;
19810;SDS011;10065;49.632;8.346;2023-11-19T16:50:18;6.90;;;1.37;;
19810;SDS011;10065;49.632;8.346;2023-11-19T16:52:51;7.43;;;1.73;;
19810;SDS011;10065;49.632;8.346;2023-11-19T16:55:20;9.07;;;1.90;;
19810;SDS011;10065;49.632;8.346;2023-11-19T16:58:10;6.83;;;1.43;;
19810;SDS011;10065;49.632;8.346;2023-11-19T17:00:44;10.23;;;1.67;;
19810;SDS011;10065;49.632;8.346;2023-11-19T17:03:15;7.73;;;1.80;;
19810;SDS011;10065;49.632;8.346;2023-11-19T17:05:44;10.23;;;1.93;;
19810;SDS011;10065;49.632;8.346;2023-11-19T17:08:22;12.40;;;2.33;;
19810;SDS011;10065;49.632;8.346;2023-11-19T17:10:53;7.93;;;1.97;;
19810;SDS011;10065;49.632;8.346;2023-11-19T17:13:22;9.07;;;1.87;;
19810;SDS011;10065;49.632;8.346;2023-11-19T17:15:50;10.17;;;2.20;;
19810;SDS011;10065;49.632;8.346;2023-11-19T17:18:20;8.30;;;2.20;;
19810;SDS011;10065;49.632;8.346;2023-11-19T17:20:49;8.10;;;2.17;;
19810;SDS011;10065;49.632;8.346;2023-11-19T17:23:19;8.13;;;1.90;;
19810;SDS011;10065;49.632;8.346;2023-11-19T17:25:48;6.93;;;2.17;;
19810;SDS011;10065;49.632;8.346;2023-11-19T17:28:17;11.10;;;2.07;;
19810;SDS011;10065;49.632;8.346;2023-11-19T17:30:46;10.70;;;2.37;;
19810;SDS011;10065;49.632;8.346;2023-11-19T17:33:15;12.67;;;2.53;;
19810;SDS011;10065;49.632;8.346;2023-11-19T17:35:45;10.37;;;1.60;;
19810;SDS011;10065;49.632;8.346;2023-11-19T17:38:13;9.33;;;2.43;;
19810;SDS011;10065;49.632;8.346;2023-11-19T17:40:44;10.60;;;2.50;;
19810;SDS011;10065;49.632;8.346;2023-11-19T17:43:13;10.97;;;2.20;;
19810;SDS011;10065;49.632;8.346;2023-11-19T17:45:42;13.77;;;2.80;;
19810;SDS011;10065;49.632;8.346;2023-11-19T17:48:10;9.10;;;2.20;;
19810;SDS011;10065;49.632;8.346;2023-11-19T17:50:39;11.07;;;2.70;;
19810;SDS011;10065;49.632;8.346;2023-11-19T17:53:09;10.03;;;2.00;;
19810;SDS011;10065;49.632;8.346;2023-11-19T17:55:37;10.23;;;2.27;;
19810;SDS011;10065;49.632;8.346;2023-11-19T17:58:06;12.50;;;2.70;;
19810;SDS011;10065;49.632;8.346;2023-11-19T18:00:38;7.77;;;2.00;;
19810;SDS011;10065;49.632;8.346;2023-11-19T18:03:07;8.33;;;1.97;;
19810;SDS011;10065;49.632;8.346;2023-11-19T18:05:36;10.27;;;2.40;;
19810;SDS011;10065;49.632;8.346;2023-11-19T18:08:09;11.83;;;2.37;;
19810;SDS011;10065;49.632;8.346;2023-11-19T18:13:29;10.00;;;2.37;;
19810;SDS011;10065;49.632;8.346;2023-11-19T18:16:00;10.20;;;2.00;;
19810;SDS011;10065;49.632;8.346;2023-11-19T18:18:29;9.93;;;2.10;;
19810;SDS011;10065;49.632;8.346;2023-11-19T18:20:58;10.80;;;2.63;;
19810;SDS011;10065;49.632;8.346;2023-11-19T18:23:30;9.07;;;2.77;;
19810;SDS011;10065;49.632;8.346;2023-11-19T18:25:59;12.23;;;2.67;;
19810;SDS011;10065;49.632;8.346;2023-11-19T18:28:27;16.13;;;3.13;;
19810;SDS011;10065;49.632;8.346;2023-11-19T18:30:56;13.00;;;2.70;;
19810;SDS011;10065;49.632;8.346;2023-11-19T18:33:24;10.50;;;2.57;;
19810;SDS011;10065;49.632;8.346;2023-11-19T18:35:53;10.40;;;2.80;;
19810;SDS011;10065;49.632;8.346;2023-11-19T18:38:22;15.13;;;3.00;;
19810;SDS011;10065;49.632;8.346;2023-11-19T18:41:10;9.97;;;2.63;;
19810;SDS011;10065;49.632;8.346;2023-11-19T18:43:39;14.20;;;3.40;;
19810;SDS011;10065;49.632;8.346;2023-11-19T18:46:08;9.40;;;2.50;;
19810;SDS011;10065;49.632;8.346;2023-11-19T18:48:36;9.60;;;1.97;;
19810;SDS011;10065;49.632;8.346;2023-11-19T18:51:05;9.90;;;2.50;;
19810;SDS011;10065;49.632;8.346;2023-11-19T18:53:33;16.10;;;2.57;;
19810;SDS011;10065;49.632;8.346;2023-11-19T18:56:02;11.10;;;2.67;;
19810;SDS011;10065;49.632;8.346;2023-11-19T18:58:35;11.77;;;3.07;;
19810;SDS011;10065;49.632;8.346;2023-11-19T19:01:03;11.20;;;2.70;;
19810;SDS011;10065;49.632;8.346;2023-11-19T19:03:32;9.67;;;3.10;;
19810;SDS011;10065;49.632;8.346;2023-11-19T19:06:02;16.53;;;3.73;;
19810;SDS011;10065;49.632;8.346;2023-11-19T19:08:31;21.67;;;3.57;;
19810;SDS011;10065;49.632;8.346;2023-11-19T19:13:57;16.40;;;3.47;;
19810;SDS011;10065;49.632;8.346;2023-11-19T19:16:28;14.97;;;3.70;;
19810;SDS011;10065;49.632;8.346;2023-11-19T19:18:57;14.87;;;3.53;;
19810;SDS011;10065;49.632;8.346;2023-11-19T19:21:26;10.23;;;2.40;;
19810;SDS011;10065;49.632;8.346;2023-11-19T19:23:57;6.80;;;2.03;;
19810;SDS011;10065;49.632;8.346;2023-11-19T19:26:29;14.37;;;2.47;;
19810;SDS011;10065;49.632;8.346;2023-11-19T19:29:00;14.83;;;2.87;;
19810;SDS011;10065;49.632;8.346;2023-11-19T19:31:29;16.53;;;3.20;;
19810;SDS011;10065;49.632;8.346;2023-11-19T19:33:58;10.67;;;2.37;;
19810;SDS011;10065;49.632;8.346;2023-11-19T19:36:27;19.67;;;2.87;;
19810;SDS011;10065;49.632;8.346;2023-11-19T19:38:58;13.87;;;3.00;;
19810;SDS011;10065;49.632;8.346;2023-11-19T19:41:28;14.40;;;2.20;;
19810;SDS011;10065;49.632;8.346;2023-11-19T19:43:56;13.83;;;2.40;;
19810;SDS011;10065;49.632;8.346;2023-11-19T19:46:26;22.47;;;2.83;;
19810;SDS011;10065;49.632;8.346;2023-11-19T19:48:55;10.27;;;2.30;;
19810;SDS011;10065;49.632;8.346;2023-11-19T19:51:23;18.37;;;2.87;;
19810;SDS011;10065;49.632;8.346;2023-11-19T19:53:51;9.77;;;2.40;;
19810;SDS011;10065;49.632;8.346;2023-11-19T19:56:19;14.63;;;2.57;;
19810;SDS011;10065;49.632;8.346;2023-11-19T19:58:48;22.33;;;3.80;;
19810;SDS011;10065;49.632;8.346;2023-11-19T20:01:16;14.23;;;3.00;;
19810;SDS011;10065;49.632;8.346;2023-11-19T20:03:46;11.83;;;2.87;;
19810;SDS011;10065;49.632;8.346;2023-11-19T20:06:14;12.70;;;2.67;;
19810;SDS011;10065;49.632;8.346;2023-11-19T20:08:48;19.83;;;3.03;;
19810;SDS011;10065;49.632;8.346;2023-11-19T20:11:19;14.93;;;2.80;;
19810;SDS011;10065;49.632;8.346;2023-11-19T20:13:47;15.40;;;2.87;;
19810;SDS011;10065;49.632;8.346;2023-11-19T20:16:21;14.07;;;2.50;;
19810;SDS011;10065;49.632;8.346;2023-11-19T20:18:51;13.30;;;2.90;;
19810;SDS011;10065;49.632;8.346;2023-11-19T20:21:20;12.00;;;3.27;;
19810;SDS011;10065;49.632;8.346;2023-11-19T20:23:52;8.50;;;2.40;;
19810;SDS011;10065;49.632;8.346;2023-11-19T20:26:20;11.30;;;2.47;;
19810;SDS011;10065;49.632;8.346;2023-11-19T20:28:49;15.10;;;2.53;;
19810;SDS011;10065;49.632;8.346;2023-11-19T20:31:39;11.23;;;3.00;;
19810;SDS011;10065;49.632;8.346;2023-11-19T20:34:08;19.00;;;3.37;;
19810;SDS011;10065;49.632;8.346;2023-11-19T20:36:37;18.60;;;2.80;;
19810;SDS011;10065;49.632;8.346;2023-11-19T20:39:06;12.23;;;2.70;;
19810;SDS011;10065;49.632;8.346;2023-11-19T20:41:34;17.53;;;2.53;;
19810;SDS011;10065;49.632;8.346;2023-11-19T20:44:03;11.87;;;2.80;;
19810;SDS011;10065;49.632;8.346;2023-11-19T20:46:32;11.40;;;2.80;;
19810;SDS011;10065;49.632;8.346;2023-11-19T20:49:01;15.10;;;2.90;;
19810;SDS011;10065;49.632;8.346;2023-11-19T20:51:31;17.53;;;2.97;;
19810;SDS011;10065;49.632;8.346;2023-11-19T20:54:06;10.43;;;3.00;;
19810;SDS011;10065;49.632;8.346;2023-11-19T20:56:34;16.43;;;2.80;;
19810;SDS011;10065;49.632;8.346;2023-11-19T20:59:03;11.80;;;2.90;;
19810;SDS011;10065;49.632;8.346;2023-11-19T21:01:41;13.90;;;2.70;;
19810;SDS011;10065;49.632;8.346;2023-11-19T21:04:10;20.33;;;3.20;;
19810;SDS011;10065;49.632;8.346;2023-11-19T21:06:42;14.93;;;3.30;;
19810;SDS011;10065;49.632;8.346;2023-11-19T21:09:14;15.50;;;3.17;;
19810;SDS011;10065;49.632;8.346;2023-11-19T21:11:42;15.63;;;2.93;;
19810;SDS011;10065;49.632;8.346;2023-11-19T21:14:11;18.50;;;3.13;;
19810;SDS011;10065;49.632;8.346;2023-11-19T21:16:40;10.30;;;2.70;;
19810;SDS011;10065;49.632;8.346;2023-11-19T21:19:10;16.50;;;2.83;;
19810;SDS011;10065;49.632;8.346;2023-11-19T21:21:39;20.17;;;3.27;;
19810;SDS011;10065;49.632;8.346;2023-11-19T21:24:13;11.13;;;2.60;;
19810;SDS011;10065;49.632;8.346;2023-11-19T21:26:51;18.07;;;3.40;;
19810;SDS011;10065;49.632;8.346;2023-11-19T21:29:39;14.93;;;3.27;;
19810;SDS011;10065;49.632;8.346;2023-11-19T21:32:11;14.97;;;3.10;;
